Nearby METAR Reports

 

KHOB - Hobbs, New Mexico, USA
Distance from station: S 40mi, 65km
Updated: Sun, 16-Jan-2022 2:50pm MST
Clear
Clear
 Wind from NW
Wind: NW 9 mph , 15 km/h, Gust: 16 mph , 26 km/h
Temperature: 68°F , 20°C
Dew Point: 3°F , -16°C
Humidity: 7%
Barometer: 30.01 inHg , 1016.3 hPa
Clouds: Clear
Visibility: 10 miles , 16 km
2022/01/16 21:50 KHOB 162150Z 32008G14KT 10SM SKC 20/M16 A3001
KGNC - Seminole, Texas, USA
Distance from station: SE 55mi, 89km
Updated: Sun, 16-Jan-2022 2:35pm MST
Clear
Clear
 Wind from NW
Wind: NW 5 mph , 7 km/h
Temperature: 68°F , 20°C
Dew Point: 10°F , -12°C
Humidity: 10%
Barometer: 30.05 inHg , 1017.6 hPa
Clouds: Clear
Visibility: 10 miles , 16 km
2022/01/16 21:35 KGNC 162135Z AUTO 31004KT 10SM CLR 20/M12 A3005 RMK AO2 T01951116
 
KROW - Roswell, New Mexico, USA
Distance from station: W 67mi, 108km
Updated: Sun, 16-Jan-2022 2:51pm MST
Clear
Clear
 Wind from SW
Wind: SW 5 mph , 7 km/h
Temperature: 66°F , 19°C
Dew Point: 10°F , -12°C
Humidity: 11%
Barometer: 30.00 inHg , 1015.9 hPa
Clouds: Clear
Visibility: 10 miles , 16 km
2022/01/16 21:51 KROW 162151Z 22004KT 10SM CLR 19/M12 A3000 RMK AO2 SLP139 T01941122
KATS - Artesia, New Mexico, USA
Distance from station: WSW 71mi, 114km
Updated: Sun, 16-Jan-2022 2:55pm MST
Clear
Clear
 Wind from calm
Wind: Calm
Temperature: 64°F , 18°C
Dew Point: 5°F , -15°C
Humidity: 9%
Barometer: 30.04 inHg , 1017.3 hPa
Clouds: Clear
Visibility: 10 miles , 16 km
2022/01/16 21:55 KATS 162155Z AUTO 00000KT 10SM CLR 18/M15 A3004 RMK AO2
 
KCVS - Cannon AFB,Clovis, New Mexico, USA
Distance from station: 0 78mi, 125km
Updated: Sun, 16-Jan-2022 1:58pm MST
Clear
Clear
 Wind from NNE
Wind: NNE 10 mph , 17 km/h
Temperature: 64°F , 18°C
Dew Point: -4°F , -20°C
Humidity: 6%
Barometer: 30.02 inHg , 1016.6 hPa
Clouds: Clear
Visibility: 10 miles , 16 km
2022/01/16 20:58 KCVS 162058Z AUTO 02009KT 10SM CLR 18/M20 A3002 RMK AO2 SLP151 T01821200 57016 $
KE11 - Andrews, Texas, USA
Distance from station: SE 78mi, 126km
Updated: Sun, 16-Jan-2022 2:35pm MST
Clear
Clear
 Wind from WNW
Wind: WNW 8 mph , 13 km/h
Temperature: 70°F , 21°C
Dew Point: 5°F , -15°C
Humidity: 8%
Barometer: 30.01 inHg , 1016.3 hPa
Clouds: Clear
Visibility: 10 miles , 16 km
2022/01/16 21:35 KE11 162135Z AUTO 29007KT 10SM CLR 21/M15 A3001 RMK AO2 T02061151
 
KCNM - Carlsbad, New Mexico, USA
Distance from station: SW 82mi, 132km
Updated: Sun, 16-Jan-2022 2:53pm MST
Clear
Clear
 Wind from calm
Wind: Calm
Temperature: 66°F , 19°C
Dew Point: 10°F , -12°C
Humidity: 11%
Barometer: 30.00 inHg , 1015.9 hPa
Clouds: Clear
Visibility: 10 miles , 16 km
2022/01/16 21:53 KCNM 162153Z AUTO 00000KT 10SM CLR 19/M12 A3000 RMK AO2 SLP145 T01891117
KCVN - Clovis Muni, New Mexico, USA
Distance from station: N 83mi, 133km
Updated: Sun, 16-Jan-2022 2:56pm MST
Clear
Clear
 Wind from ENE
Wind: ENE 9 mph , 15 km/h
Temperature: 64°F , 18°C
Dew Point: -0°F , -18°C
Humidity: 7%
Barometer: 30.04 inHg , 1017.3 hPa
Clouds: Clear
Visibility: 10 miles , 16 km
2022/01/16 21:56 KCVN 162156Z AUTO 06008KT 10SM CLR 18/M18 A3004 RMK AO2 SLP167 T01781178
 
KLBB - Lubbock, Texas, USA
Distance from station: ENE 92mi, 149km
Updated: Sun, 16-Jan-2022 2:53pm MST
Few Clouds
Few Clouds
 Wind from NNE
Wind: NNE 10 mph , 17 km/h
Temperature: 68°F , 20°C
Dew Point: 3°F , -16°C
Humidity: 7%
Barometer: 29.99 inHg , 1015.6 hPa
Clouds: Few Clouds
Visibility: 10 miles , 16 km
Cloud details: Few Clouds 26000 ft
2022/01/16 21:53 KLBB 162153Z 02009KT 10SM FEW260 20/M16 A2999 RMK AO2 SLP146 T02001161
KINK - Wink, Texas, USA
Distance from station: S 101mi, 163km
Updated: Sun, 16-Jan-2022 2:53pm MST
Clear
Clear
 Wind from WSW
Wind: WSW 12 mph , 19 km/h
Temperature: 70°F , 21°C
Dew Point: 9°F , -13°C
Humidity: 9%
Barometer: 29.99 inHg , 1015.6 hPa
Clouds: Clear
Visibility: 10 miles , 16 km
2022/01/16 21:53 KINK 162153Z AUTO 25010KT 10SM CLR 21/M13 A2999 RMK AO2 SLP145 T02061133
 
KMAF - Midland, Texas, USA
Distance from station: SE 111mi, 179km
Updated: Sun, 16-Jan-2022 2:53pm MST
Clear
Clear
 Wind from W
Wind: W 14 mph , 22 km/h
Temperature: 66°F , 19°C
Dew Point: 7°F , -14°C
Humidity: 9%
Barometer: 30.00 inHg , 1015.9 hPa
Clouds: Clear
Visibility: 10 miles , 16 km
2022/01/16 21:53 KMAF 162153Z 26012KT 10SM CLR 19/M14 A3000 RMK AO2 SLP145 T01941139
KSRR - Sierra B/Ruidoso, New Mexico, USA
Distance from station: W 127mi, 204km
Updated: Sun, 16-Jan-2022 2:55pm MST
Clear
Clear
 Wind from NW
Wind: NW 9 mph , 15 km/h
Temperature: 55°F , 13°C
Dew Point: 7°F , -14°C
Humidity: 14%
Barometer: 30.15 inHg , 1021 hPa
Clouds: Clear
Visibility: 10 miles , 16 km
2022/01/16 21:55 KSRR 162155Z AUTO 32008KT 10SM CLR 13/M14 A3015 RMK AO2
 
KGDP - Guadalupe Pass, Texas, USA
Distance from station: SW 130mi, 209km
Updated: Sun, 16-Jan-2022 2:51pm MST
Clear
Clear
 Wind from WSW
Wind: WSW 31 mph , 50 km/h, Gust: 40 mph , 65 km/h
Temperature: 55°F , 13°C
Dew Point: 10°F , -12°C
Humidity: 16%
Barometer: 30.10 inHg , 1019.3 hPa
Clouds: Clear
Visibility: 9 miles , 14 km
2022/01/16 21:51 KGDP 162151Z AUTO 24027G35KT 9SM CLR 13/M12 A3010 RMK AO2 PK WND 25035/2147 SLP170 T01331117 $